CheckWX is a tool to help pilots better visualize weather data.  It is not intended as a substitute for an official pre-flight weather briefing.

18:39:19 UTC

KMCB TAF
Mc Comb / Pike County / John E Lewis Field Airport
Mc Comb, Mississippi, USA
KMCB 161739Z 1618/1718 08004KT P6SM OVC005 FM170500 VRB03KT 4SM BR OVC008 FM170600 VRB03KT 1SM BR OVC003 TEMPO 1711/1714 1/4SM FG OVC003 FM171600 16005KT 3SM BR OVC003 FM171700 17005KT 6SM BR OVC008

Feb-16@
18:00 UTC

Feb-16 @ 18:00 UTC

Feb-17@
05:00 UTC

Feb-17 @ 05:00 UTC

KMCB 161739Z 1618/1718 08004KT P6SM OVC005
Wind
  • 080° at 4 KTS
Cloud Levels
  • Overcast at 500' AGL

Feb-17@
05:00 UTC

Feb-17 @ 05:00 UTC

Feb-17@
06:00 UTC

Feb-17 @ 06:00 UTC

FM170500 VRB03KT 4SM BR OVC008

From

From Standard forecast or significant change

Wind
  • Variable at 3 KTS
Conditions
Mist
Cloud Levels
  • Overcast at 800' AGL

Feb-17@
06:00 UTC

Feb-17 @ 06:00 UTC

Feb-17@
16:00 UTC

Feb-17 @ 16:00 UTC

FM170600 VRB03KT 1SM BR OVC003

From

From Standard forecast or significant change

Wind
  • Variable at 3 KTS
Conditions
Mist
Cloud Levels
  • Overcast at 300' AGL

Feb-17@
11:00 UTC

Feb-17 @ 11:00 UTC

Feb-17@
14:00 UTC

Feb-17 @ 14:00 UTC

TEMPO 1711/1714 1/4SM FG OVC003

Temporary

Temporary Changes expected for less than half the time period

Conditions
Fog
Cloud Levels
  • Overcast at 300' AGL

Feb-17@
16:00 UTC

Feb-17 @ 16:00 UTC

Feb-17@
17:00 UTC

Feb-17 @ 17:00 UTC

FM171600 16005KT 3SM BR OVC003

From

From Standard forecast or significant change

Wind
  • 160° at 5 KTS
Conditions
Mist
Cloud Levels
  • Overcast at 300' AGL

Feb-17@
17:00 UTC

Feb-17 @ 17:00 UTC

Feb-17@
18:00 UTC

Feb-17 @ 18:00 UTC

FM171700 17005KT 6SM BR OVC008

From

From Standard forecast or significant change

Wind
  • 170° at 5 KTS
Conditions
Mist
Cloud Levels
  • Overcast at 800' AGL